sensor_id;sensor_type;location;lat;lon;timestamp;temperature;humidity
22192;DHT22;11261;52.456;10.850;2023-08-06T00:00:53;16.10;99.90
22192;DHT22;11261;52.456;10.850;2023-08-06T00:03:22;16.00;99.90
22192;DHT22;11261;52.456;10.850;2023-08-06T00:05:51;16.00;99.90
22192;DHT22;11261;52.456;10.850;2023-08-06T00:08:20;16.10;99.90
22192;DHT22;11261;52.456;10.850;2023-08-06T00:10:48;16.20;99.90
22192;DHT22;11261;52.456;10.850;2023-08-06T00:13:17;16.20;99.90
22192;DHT22;11261;52.456;10.850;2023-08-06T00:15:46;16.30;99.90
22192;DHT22;11261;52.456;10.850;2023-08-06T00:18:16;16.20;99.90
22192;DHT22;11261;52.456;10.850;2023-08-06T00:20:45;16.20;99.90
22192;DHT22;11261;52.456;10.850;2023-08-06T00:23:13;16.20;99.90
22192;DHT22;11261;52.456;10.850;2023-08-06T00:25:42;16.40;99.90
22192;DHT22;11261;52.456;10.850;2023-08-06T00:28:11;16.60;99.90
22192;DHT22;11261;52.456;10.850;2023-08-06T00:30:39;16.70;99.90
22192;DHT22;11261;52.456;10.850;2023-08-06T00:33:08;16.60;99.90
22192;DHT22;11261;52.456;10.850;2023-08-06T00:35:38;16.50;99.90
22192;DHT22;11261;52.456;10.850;2023-08-06T00:38:07;16.40;99.90
22192;DHT22;11261;52.456;10.850;2023-08-06T00:40:36;16.60;99.90
22192;DHT22;11261;52.456;10.850;2023-08-06T00:43:04;16.80;99.90
22192;DHT22;11261;52.456;10.850;2023-08-06T00:45:35;16.90;99.90
22192;DHT22;11261;52.456;10.850;2023-08-06T00:48:05;17.10;99.90
22192;DHT22;11261;52.456;10.850;2023-08-06T00:50:34;17.30;99.90
22192;DHT22;11261;52.456;10.850;2023-08-06T00:53:04;17.30;99.90
22192;DHT22;11261;52.456;10.850;2023-08-06T00:55:33;17.30;99.90
22192;DHT22;11261;52.456;10.850;2023-08-06T00:58:02;17.40;99.90
22192;DHT22;11261;52.456;10.850;2023-08-06T01:00:31;17.40;99.90
22192;DHT22;11261;52.456;10.850;2023-08-06T01:03:00;17.30;99.90
22192;DHT22;11261;52.456;10.850;2023-08-06T01:05:29;17.20;99.90
22192;DHT22;11261;52.456;10.850;2023-08-06T01:08:15;17.00;99.90
22192;DHT22;11261;52.456;10.850;2023-08-06T01:10:55;16.70;99.90
22192;DHT22;11261;52.456;10.850;2023-08-06T01:13:33;16.80;99.90
22192;DHT22;11261;52.456;10.850;2023-08-06T01:16:06;16.90;99.90
22192;DHT22;11261;52.456;10.850;2023-08-06T01:18:35;17.00;99.90
22192;DHT22;11261;52.456;10.850;2023-08-06T01:21:07;16.90;99.90
22192;DHT22;11261;52.456;10.850;2023-08-06T01:23:36;16.40;99.90
22192;DHT22;11261;52.456;10.850;2023-08-06T01:26:11;16.20;99.90
22192;DHT22;11261;52.456;10.850;2023-08-06T01:28:48;16.20;99.90
22192;DHT22;11261;52.456;10.850;2023-08-06T01:31:26;16.40;99.90
22192;DHT22;11261;52.456;10.850;2023-08-06T01:33:56;16.50;99.90
22192;DHT22;11261;52.456;10.850;2023-08-06T01:36:28;16.60;99.90
22192;DHT22;11261;52.456;10.850;2023-08-06T01:38:57;16.40;99.90
22192;DHT22;11261;52.456;10.850;2023-08-06T01:41:26;16.40;99.90
22192;DHT22;11261;52.456;10.850;2023-08-06T01:43:54;16.40;99.90
22192;DHT22;11261;52.456;10.850;2023-08-06T01:46:23;16.30;99.90
22192;DHT22;11261;52.456;10.850;2023-08-06T01:48:52;16.20;99.90
22192;DHT22;11261;52.456;10.850;2023-08-06T01:51:21;16.00;99.90
22192;DHT22;11261;52.456;10.850;2023-08-06T01:53:51;16.10;99.90
22192;DHT22;11261;52.456;10.850;2023-08-06T01:56:20;16.10;99.90
22192;DHT22;11261;52.456;10.850;2023-08-06T01:58:49;16.10;99.90
22192;DHT22;11261;52.456;10.850;2023-08-06T02:01:18;16.20;99.90
22192;DHT22;11261;52.456;10.850;2023-08-06T02:03:46;16.20;99.90
22192;DHT22;11261;52.456;10.850;2023-08-06T02:06:15;16.30;99.90
22192;DHT22;11261;52.456;10.850;2023-08-06T02:08:44;16.30;99.90
22192;DHT22;11261;52.456;10.850;2023-08-06T02:11:14;16.50;99.90
22192;DHT22;11261;52.456;10.850;2023-08-06T02:13:43;16.70;99.90
22192;DHT22;11261;52.456;10.850;2023-08-06T02:16:12;16.70;99.90
22192;DHT22;11261;52.456;10.850;2023-08-06T02:18:40;16.60;99.90
22192;DHT22;11261;52.456;10.850;2023-08-06T02:21:09;16.70;99.90
22192;DHT22;11261;52.456;10.850;2023-08-06T02:23:37;16.80;99.90
22192;DHT22;11261;52.456;10.850;2023-08-06T02:26:06;16.80;99.90
22192;DHT22;11261;52.456;10.850;2023-08-06T02:28:36;16.60;99.90
22192;DHT22;11261;52.456;10.850;2023-08-06T02:31:05;16.10;99.90
22192;DHT22;11261;52.456;10.850;2023-08-06T02:33:34;16.10;99.90
22192;DHT22;11261;52.456;10.850;2023-08-06T02:36:04;16.10;99.90
22192;DHT22;11261;52.456;10.850;2023-08-06T02:38:33;16.10;99.90
22192;DHT22;11261;52.456;10.850;2023-08-06T02:41:03;16.10;99.90
22192;DHT22;11261;52.456;10.850;2023-08-06T02:43:32;16.10;99.90
22192;DHT22;11261;52.456;10.850;2023-08-06T02:46:02;16.00;99.90
22192;DHT22;11261;52.456;10.850;2023-08-06T02:48:31;16.10;99.90
22192;DHT22;11261;52.456;10.850;2023-08-06T02:51:00;16.30;99.90
22192;DHT22;11261;52.456;10.850;2023-08-06T02:53:28;16.40;99.90
22192;DHT22;11261;52.456;10.850;2023-08-06T02:55:57;16.40;99.90
22192;DHT22;11261;52.456;10.850;2023-08-06T02:58:27;16.10;99.90
22192;DHT22;11261;52.456;10.850;2023-08-06T03:01:04;16.10;99.90
22192;DHT22;11261;52.456;10.850;2023-08-06T03:03:35;16.30;99.90
22192;DHT22;11261;52.456;10.850;2023-08-06T03:06:04;16.50;99.90
22192;DHT22;11261;52.456;10.850;2023-08-06T03:08:32;16.50;99.90
22192;DHT22;11261;52.456;10.850;2023-08-06T03:11:01;16.30;99.90
22192;DHT22;11261;52.456;10.850;2023-08-06T03:13:30;16.20;99.90
22192;DHT22;11261;52.456;10.850;2023-08-06T03:15:59;16.30;99.90
22192;DHT22;11261;52.456;10.850;2023-08-06T03:18:30;16.50;99.90
22192;DHT22;11261;52.456;10.850;2023-08-06T03:20:58;16.60;99.90
22192;DHT22;11261;52.456;10.850;2023-08-06T03:23:27;16.50;99.90
22192;DHT22;11261;52.456;10.850;2023-08-06T03:25:56;16.50;99.90
22192;DHT22;11261;52.456;10.850;2023-08-06T03:28:24;16.50;99.90
22192;DHT22;11261;52.456;10.850;2023-08-06T03:30:59;16.60;99.90
22192;DHT22;11261;52.456;10.850;2023-08-06T03:33:29;16.20;99.90
22192;DHT22;11261;52.456;10.850;2023-08-06T03:35:59;16.10;99.90
22192;DHT22;11261;52.456;10.850;2023-08-06T03:38:27;16.10;99.90
22192;DHT22;11261;52.456;10.850;2023-08-06T03:40:56;16.20;99.90
22192;DHT22;11261;52.456;10.850;2023-08-06T03:43:25;16.20;99.90
22192;DHT22;11261;52.456;10.850;2023-08-06T03:45:54;16.10;99.90
22192;DHT22;11261;52.456;10.850;2023-08-06T03:48:22;16.20;99.90
22192;DHT22;11261;52.456;10.850;2023-08-06T03:50:52;16.20;99.90
22192;DHT22;11261;52.456;10.850;2023-08-06T03:53:21;15.80;99.90
22192;DHT22;11261;52.456;10.850;2023-08-06T03:55:50;16.00;99.90
22192;DHT22;11261;52.456;10.850;2023-08-06T03:58:18;16.00;99.90
22192;DHT22;11261;52.456;10.850;2023-08-06T04:00:47;15.80;99.90
22192;DHT22;11261;52.456;10.850;2023-08-06T04:03:15;15.90;99.90
22192;DHT22;11261;52.456;10.850;2023-08-06T04:05:44;15.90;99.90
22192;DHT22;11261;52.456;10.850;2023-08-06T04:08:14;16.00;99.90
22192;DHT22;11261;52.456;10.850;2023-08-06T04:10:43;15.90;99.90
22192;DHT22;11261;52.456;10.850;2023-08-06T04:13:11;16.00;99.90
22192;DHT22;11261;52.456;10.850;2023-08-06T04:15:40;16.00;99.90
22192;DHT22;11261;52.456;10.850;2023-08-06T04:18:08;16.10;99.90
22192;DHT22;11261;52.456;10.850;2023-08-06T04:20:42;16.20;99.90
22192;DHT22;11261;52.456;10.850;2023-08-06T04:23:14;16.30;99.90
22192;DHT22;11261;52.456;10.850;2023-08-06T04:25:43;16.20;99.90
22192;DHT22;11261;52.456;10.850;2023-08-06T04:28:11;16.10;99.90
22192;DHT22;11261;52.456;10.850;2023-08-06T04:30:40;16.20;99.90
22192;DHT22;11261;52.456;10.850;2023-08-06T04:33:09;16.30;99.90
22192;DHT22;11261;52.456;10.850;2023-08-06T04:35:37;16.40;99.90
22192;DHT22;11261;52.456;10.850;2023-08-06T04:38:06;16.30;99.90
22192;DHT22;11261;52.456;10.850;2023-08-06T04:40:36;16.30;99.90
22192;DHT22;11261;52.456;10.850;2023-08-06T04:43:05;16.30;99.90
22192;DHT22;11261;52.456;10.850;2023-08-06T04:45:34;16.30;99.90
22192;DHT22;11261;52.456;10.850;2023-08-06T04:48:02;16.20;99.90
22192;DHT22;11261;52.456;10.850;2023-08-06T04:50:31;16.40;99.90
22192;DHT22;11261;52.456;10.850;2023-08-06T04:53:00;16.40;99.90
22192;DHT22;11261;52.456;10.850;2023-08-06T04:55:29;16.40;99.90
22192;DHT22;11261;52.456;10.850;2023-08-06T04:57:59;16.30;99.90
22192;DHT22;11261;52.456;10.850;2023-08-06T05:00:28;16.30;99.90
22192;DHT22;11261;52.456;10.850;2023-08-06T05:02:57;16.40;99.90
22192;DHT22;11261;52.456;10.850;2023-08-06T05:05:25;16.30;99.90
22192;DHT22;11261;52.456;10.850;2023-08-06T05:07:55;16.30;99.90
22192;DHT22;11261;52.456;10.850;2023-08-06T05:10:24;16.30;99.90
22192;DHT22;11261;52.456;10.850;2023-08-06T05:12:53;16.40;99.90
22192;DHT22;11261;52.456;10.850;2023-08-06T05:15:23;16.30;99.90
22192;DHT22;11261;52.456;10.850;2023-08-06T05:17:53;16.30;99.90
22192;DHT22;11261;52.456;10.850;2023-08-06T05:20:22;16.40;99.90
22192;DHT22;11261;52.456;10.850;2023-08-06T05:22:51;16.40;99.90
22192;DHT22;11261;52.456;10.850;2023-08-06T05:25:20;16.50;99.90
22192;DHT22;11261;52.456;10.850;2023-08-06T05:27:48;16.50;99.90
22192;DHT22;11261;52.456;10.850;2023-08-06T05:30:17;16.30;99.90
22192;DHT22;11261;52.456;10.850;2023-08-06T05:32:47;16.40;99.90
22192;DHT22;11261;52.456;10.850;2023-08-06T05:35:16;16.40;99.90
22192;DHT22;11261;52.456;10.850;2023-08-06T05:37:45;16.40;99.90
22192;DHT22;11261;52.456;10.850;2023-08-06T05:40:14;16.50;99.90
22192;DHT22;11261;52.456;10.850;2023-08-06T05:42:43;16.40;99.90
22192;DHT22;11261;52.456;10.850;2023-08-06T05:45:12;16.40;99.90
22192;DHT22;11261;52.456;10.850;2023-08-06T05:47:41;16.50;99.90
22192;DHT22;11261;52.456;10.850;2023-08-06T05:50:12;16.40;99.90
22192;DHT22;11261;52.456;10.850;2023-08-06T05:52:41;16.50;99.90
22192;DHT22;11261;52.456;10.850;2023-08-06T05:55:10;16.40;99.90
22192;DHT22;11261;52.456;10.850;2023-08-06T05:57:38;16.50;99.90
22192;DHT22;11261;52.456;10.850;2023-08-06T06:00:08;16.50;99.90
22192;DHT22;11261;52.456;10.850;2023-08-06T06:02:37;16.60;99.90
22192;DHT22;11261;52.456;10.850;2023-08-06T06:05:06;16.60;99.90
22192;DHT22;11261;52.456;10.850;2023-08-06T06:07:36;16.60;99.90
22192;DHT22;11261;52.456;10.850;2023-08-06T06:10:06;16.70;99.90
22192;DHT22;11261;52.456;10.850;2023-08-06T06:12:34;16.70;99.90
22192;DHT22;11261;52.456;10.850;2023-08-06T06:15:04;16.70;99.90
22192;DHT22;11261;52.456;10.850;2023-08-06T06:17:32;16.80;99.90
22192;DHT22;11261;52.456;10.850;2023-08-06T06:20:01;16.70;99.90
22192;DHT22;11261;52.456;10.850;2023-08-06T06:22:31;16.70;99.90
22192;DHT22;11261;52.456;10.850;2023-08-06T06:25:01;16.70;99.90
22192;DHT22;11261;52.456;10.850;2023-08-06T06:27:30;16.70;99.90
22192;DHT22;11261;52.456;10.850;2023-08-06T06:29:59;16.80;99.90
22192;DHT22;11261;52.456;10.850;2023-08-06T06:32:28;16.80;99.90
22192;DHT22;11261;52.456;10.850;2023-08-06T06:34:57;16.90;99.90
22192;DHT22;11261;52.456;10.850;2023-08-06T06:37:25;16.90;99.90
22192;DHT22;11261;52.456;10.850;2023-08-06T06:39:54;17.00;99.90
22192;DHT22;11261;52.456;10.850;2023-08-06T06:42:25;16.90;99.90
22192;DHT22;11261;52.456;10.850;2023-08-06T06:44:54;16.90;99.90
22192;DHT22;11261;52.456;10.850;2023-08-06T06:47:22;16.90;99.90
22192;DHT22;11261;52.456;10.850;2023-08-06T06:49:51;17.00;99.90
22192;DHT22;11261;52.456;10.850;2023-08-06T06:52:20;17.10;99.90
22192;DHT22;11261;52.456;10.850;2023-08-06T06:54:49;17.10;99.90
22192;DHT22;11261;52.456;10.850;2023-08-06T06:57:17;17.10;99.90
22192;DHT22;11261;52.456;10.850;2023-08-06T06:59:48;17.10;99.90
22192;DHT22;11261;52.456;10.850;2023-08-06T07:02:17;17.10;99.90
22192;DHT22;11261;52.456;10.850;2023-08-06T07:04:45;17.30;99.90
22192;DHT22;11261;52.456;10.850;2023-08-06T07:07:14;17.40;99.90
22192;DHT22;11261;52.456;10.850;2023-08-06T07:09:43;17.30;99.90
22192;DHT22;11261;52.456;10.850;2023-08-06T07:12:12;17.20;99.90
22192;DHT22;11261;52.456;10.850;2023-08-06T07:14:40;17.20;99.90
22192;DHT22;11261;52.456;10.850;2023-08-06T07:17:11;17.20;99.90
22192;DHT22;11261;52.456;10.850;2023-08-06T07:19:39;17.40;99.90
22192;DHT22;11261;52.456;10.850;2023-08-06T07:22:08;17.60;99.90
22192;DHT22;11261;52.456;10.850;2023-08-06T07:24:37;17.70;99.90
22192;DHT22;11261;52.456;10.850;2023-08-06T07:27:06;17.70;99.90
22192;DHT22;11261;52.456;10.850;2023-08-06T07:29:36;17.80;99.90
22192;DHT22;11261;52.456;10.850;2023-08-06T07:32:06;17.70;99.90
22192;DHT22;11261;52.456;10.850;2023-08-06T07:34:37;17.80;99.90
22192;DHT22;11261;52.456;10.850;2023-08-06T07:37:05;17.90;99.90
22192;DHT22;11261;52.456;10.850;2023-08-06T07:39:34;17.80;99.90
22192;DHT22;11261;52.456;10.850;2023-08-06T07:42:05;17.80;99.90
22192;DHT22;11261;52.456;10.850;2023-08-06T07:44:34;18.00;99.90
22192;DHT22;11261;52.456;10.850;2023-08-06T07:47:03;18.10;99.90
22192;DHT22;11261;52.456;10.850;2023-08-06T07:49:32;18.10;99.90
22192;DHT22;11261;52.456;10.850;2023-08-06T07:52:02;18.20;99.90
22192;DHT22;11261;52.456;10.850;2023-08-06T07:54:31;18.30;99.90
22192;DHT22;11261;52.456;10.850;2023-08-06T07:57:00;18.20;99.90
22192;DHT22;11261;52.456;10.850;2023-08-06T07:59:29;18.10;99.90
22192;DHT22;11261;52.456;10.850;2023-08-06T08:01:57;18.10;99.90
22192;DHT22;11261;52.456;10.850;2023-08-06T08:04:26;18.30;99.90
22192;DHT22;11261;52.456;10.850;2023-08-06T08:06:55;18.20;99.90
22192;DHT22;11261;52.456;10.850;2023-08-06T08:09:25;18.10;99.90
22192;DHT22;11261;52.456;10.850;2023-08-06T08:11:53;18.30;99.90
22192;DHT22;11261;52.456;10.850;2023-08-06T08:14:26;18.40;99.90
22192;DHT22;11261;52.456;10.850;2023-08-06T08:16:56;18.40;99.90
22192;DHT22;11261;52.456;10.850;2023-08-06T08:19:24;18.60;99.90
22192;DHT22;11261;52.456;10.850;2023-08-06T08:21:53;18.60;99.90
22192;DHT22;11261;52.456;10.850;2023-08-06T08:24:24;18.80;99.90
22192;DHT22;11261;52.456;10.850;2023-08-06T08:26:52;18.80;99.90
22192;DHT22;11261;52.456;10.850;2023-08-06T08:29:21;18.90;99.90
22192;DHT22;11261;52.456;10.850;2023-08-06T08:31:50;18.90;99.90
22192;DHT22;11261;52.456;10.850;2023-08-06T08:34:20;18.90;99.90
22192;DHT22;11261;52.456;10.850;2023-08-06T08:36:48;19.00;99.90
22192;DHT22;11261;52.456;10.850;2023-08-06T08:39:17;19.00;99.90
22192;DHT22;11261;52.456;10.850;2023-08-06T08:41:47;19.20;99.90
22192;DHT22;11261;52.456;10.850;2023-08-06T08:44:16;19.20;99.90
22192;DHT22;11261;52.456;10.850;2023-08-06T08:46:47;19.10;99.90
22192;DHT22;11261;52.456;10.850;2023-08-06T08:49:16;19.30;99.90
22192;DHT22;11261;52.456;10.850;2023-08-06T08:51:46;19.70;99.90
22192;DHT22;11261;52.456;10.850;2023-08-06T08:54:15;19.90;99.90
22192;DHT22;11261;52.456;10.850;2023-08-06T08:56:46;20.00;99.90
22192;DHT22;11261;52.456;10.850;2023-08-06T08:59:15;19.90;99.90
22192;DHT22;11261;52.456;10.850;2023-08-06T09:01:46;19.80;99.90
22192;DHT22;11261;52.456;10.850;2023-08-06T09:04:19;19.90;99.90
22192;DHT22;11261;52.456;10.850;2023-08-06T09:06:50;19.90;99.90
22192;DHT22;11261;52.456;10.850;2023-08-06T09:09:25;19.80;99.90
22192;DHT22;11261;52.456;10.850;2023-08-06T09:15:52;20.00;99.90
22192;DHT22;11261;52.456;10.850;2023-08-06T09:18:25;20.50;99.90
22192;DHT22;11261;52.456;10.850;2023-08-06T09:20:55;20.80;99.90
22192;DHT22;11261;52.456;10.850;2023-08-06T09:23:28;20.40;99.90
22192;DHT22;11261;52.456;10.850;2023-08-06T09:25:58;20.40;99.90
22192;DHT22;11261;52.456;10.850;2023-08-06T09:28:36;20.70;99.90
22192;DHT22;11261;52.456;10.850;2023-08-06T09:31:08;21.00;99.90
22192;DHT22;11261;52.456;10.850;2023-08-06T09:33:37;21.10;99.90
22192;DHT22;11261;52.456;10.850;2023-08-06T09:36:09;21.30;99.90
22192;DHT22;11261;52.456;10.850;2023-08-06T09:38:38;21.20;99.90
22192;DHT22;11261;52.456;10.850;2023-08-06T09:41:08;21.40;99.90
22192;DHT22;11261;52.456;10.850;2023-08-06T09:43:40;22.10;99.90
22192;DHT22;11261;52.456;10.850;2023-08-06T09:46:14;21.90;99.90
22192;DHT22;11261;52.456;10.850;2023-08-06T09:48:48;22.10;99.90
22192;DHT22;11261;52.456;10.850;2023-08-06T09:51:17;22.50;99.90
22192;DHT22;11261;52.456;10.850;2023-08-06T09:53:47;22.60;99.90
22192;DHT22;11261;52.456;10.850;2023-08-06T09:56:17;22.90;99.90
22192;DHT22;11261;52.456;10.850;2023-08-06T09:58:47;23.30;99.90
22192;DHT22;11261;52.456;10.850;2023-08-06T10:01:19;23.00;99.90
22192;DHT22;11261;52.456;10.850;2023-08-06T10:03:47;23.00;99.90
22192;DHT22;11261;52.456;10.850;2023-08-06T10:06:17;22.50;99.90
22192;DHT22;11261;52.456;10.850;2023-08-06T10:08:46;23.10;99.90
22192;DHT22;11261;52.456;10.850;2023-08-06T10:11:17;23.60;99.90
22192;DHT22;11261;52.456;10.850;2023-08-06T10:13:47;24.00;99.90
22192;DHT22;11261;52.456;10.850;2023-08-06T10:16:18;24.00;99.90
22192;DHT22;11261;52.456;10.850;2023-08-06T10:18:47;24.30;99.90
22192;DHT22;11261;52.456;10.850;2023-08-06T10:21:16;23.60;99.90
22192;DHT22;11261;52.456;10.850;2023-08-06T10:23:53;24.40;99.90
22192;DHT22;11261;52.456;10.850;2023-08-06T10:26:25;24.40;99.90
22192;DHT22;11261;52.456;10.850;2023-08-06T10:28:55;23.70;99.90
22192;DHT22;11261;52.456;10.850;2023-08-06T10:31:55;24.70;99.90
22192;DHT22;11261;52.456;10.850;2023-08-06T10:34:53;24.40;99.90
22192;DHT22;11261;52.456;10.850;2023-08-06T10:37:23;24.80;99.90
22192;DHT22;11261;52.456;10.850;2023-08-06T10:39:51;23.90;99.90
22192;DHT22;11261;52.456;10.850;2023-08-06T10:42:21;24.70;99.90
22192;DHT22;11261;52.456;10.850;2023-08-06T10:45:14;24.60;99.90
22192;DHT22;11261;52.456;10.850;2023-08-06T10:47:45;24.20;99.90
22192;DHT22;11261;52.456;10.850;2023-08-06T10:50:15;24.30;99.90
22192;DHT22;11261;52.456;10.850;2023-08-06T10:52:45;24.60;99.90
22192;DHT22;11261;52.456;10.850;2023-08-06T10:55:14;24.80;99.90
22192;DHT22;11261;52.456;10.850;2023-08-06T10:57:42;24.50;99.90
22192;DHT22;11261;52.456;10.850;2023-08-06T11:00:11;25.00;99.90
22192;DHT22;11261;52.456;10.850;2023-08-06T11:02:47;25.00;99.90
22192;DHT22;11261;52.456;10.850;2023-08-06T11:05:16;25.10;99.90
22192;DHT22;11261;52.456;10.850;2023-08-06T11:07:44;25.00;99.90
22192;DHT22;11261;52.456;10.850;2023-08-06T11:10:15;25.30;99.90
22192;DHT22;11261;52.456;10.850;2023-08-06T11:12:43;25.30;99.90
22192;DHT22;11261;52.456;10.850;2023-08-06T11:15:12;25.50;99.90
22192;DHT22;11261;52.456;10.850;2023-08-06T11:17:41;25.10;99.90
22192;DHT22;11261;52.456;10.850;2023-08-06T11:20:11;24.90;99.90
22192;DHT22;11261;52.456;10.850;2023-08-06T11:22:43;25.10;99.90
22192;DHT22;11261;52.456;10.850;2023-08-06T11:25:11;24.30;99.90
22192;DHT22;11261;52.456;10.850;2023-08-06T11:27:40;24.50;99.90
22192;DHT22;11261;52.456;10.850;2023-08-06T11:30:11;24.90;99.90
22192;DHT22;11261;52.456;10.850;2023-08-06T11:32:45;24.90;99.90
22192;DHT22;11261;52.456;10.850;2023-08-06T11:35:16;24.80;99.90
22192;DHT22;11261;52.456;10.850;2023-08-06T11:37:44;25.20;99.90
22192;DHT22;11261;52.456;10.850;2023-08-06T11:40:15;25.60;99.90
22192;DHT22;11261;52.456;10.850;2023-08-06T11:42:46;26.10;99.90
22192;DHT22;11261;52.456;10.850;2023-08-06T11:45:14;25.00;99.90
22192;DHT22;11261;52.456;10.850;2023-08-06T11:47:50;26.30;99.90
22192;DHT22;11261;52.456;10.850;2023-08-06T11:50:23;25.50;99.90
22192;DHT22;11261;52.456;10.850;2023-08-06T11:52:56;25.80;99.90
22192;DHT22;11261;52.456;10.850;2023-08-06T11:55:26;25.90;99.90
22192;DHT22;11261;52.456;10.850;2023-08-06T11:57:55;26.10;99.90
22192;DHT22;11261;52.456;10.850;2023-08-06T12:00:24;25.30;99.90
22192;DHT22;11261;52.456;10.850;2023-08-06T12:02:53;25.60;99.90
22192;DHT22;11261;52.456;10.850;2023-08-06T12:05:24;26.70;99.90
22192;DHT22;11261;52.456;10.850;2023-08-06T12:07:57;26.60;99.90
22192;DHT22;11261;52.456;10.850;2023-08-06T12:10:27;25.20;99.90
22192;DHT22;11261;52.456;10.850;2023-08-06T12:12:56;25.50;99.90
22192;DHT22;11261;52.456;10.850;2023-08-06T12:15:24;26.50;99.90
22192;DHT22;11261;52.456;10.850;2023-08-06T12:17:52;26.40;99.90
22192;DHT22;11261;52.456;10.850;2023-08-06T12:20:22;25.30;99.90
22192;DHT22;11261;52.456;10.850;2023-08-06T12:22:52;26.40;99.90
22192;DHT22;11261;52.456;10.850;2023-08-06T12:25:20;27.10;99.90
22192;DHT22;11261;52.456;10.850;2023-08-06T12:27:48;27.30;99.90
22192;DHT22;11261;52.456;10.850;2023-08-06T12:30:17;26.70;99.90
22192;DHT22;11261;52.456;10.850;2023-08-06T12:32:45;26.80;99.90
22192;DHT22;11261;52.456;10.850;2023-08-06T12:35:13;26.40;99.90
22192;DHT22;11261;52.456;10.850;2023-08-06T12:37:43;26.10;99.90
22192;DHT22;11261;52.456;10.850;2023-08-06T12:40:12;25.70;99.90
22192;DHT22;11261;52.456;10.850;2023-08-06T12:43:00;24.50;99.90
22192;DHT22;11261;52.456;10.850;2023-08-06T12:45:29;25.80;99.90
22192;DHT22;11261;52.456;10.850;2023-08-06T12:47:57;24.20;99.90
22192;DHT22;11261;52.456;10.850;2023-08-06T12:50:25;24.00;99.90
22192;DHT22;11261;52.456;10.850;2023-08-06T12:52:55;25.50;99.90
22192;DHT22;11261;52.456;10.850;2023-08-06T12:55:23;26.10;99.90
22192;DHT22;11261;52.456;10.850;2023-08-06T12:57:51;25.60;99.90
22192;DHT22;11261;52.456;10.850;2023-08-06T13:00:25;25.00;99.90
22192;DHT22;11261;52.456;10.850;2023-08-06T13:02:53;25.30;99.90
22192;DHT22;11261;52.456;10.850;2023-08-06T13:05:22;25.90;99.90
22192;DHT22;11261;52.456;10.850;2023-08-06T13:07:50;25.10;99.90
22192;DHT22;11261;52.456;10.850;2023-08-06T13:10:19;25.30;99.90
22192;DHT22;11261;52.456;10.850;2023-08-06T13:12:48;26.10;99.90
22192;DHT22;11261;52.456;10.850;2023-08-06T13:15:16;27.00;99.90
22192;DHT22;11261;52.456;10.850;2023-08-06T13:17:47;25.30;99.90
22192;DHT22;11261;52.456;10.850;2023-08-06T13:20:16;23.60;99.90
22192;DHT22;11261;52.456;10.850;2023-08-06T13:22:46;24.30;99.90
22192;DHT22;11261;52.456;10.850;2023-08-06T13:25:19;25.40;99.90
22192;DHT22;11261;52.456;10.850;2023-08-06T13:27:47;26.30;99.90
22192;DHT22;11261;52.456;10.850;2023-08-06T13:30:16;26.00;99.90
22192;DHT22;11261;52.456;10.850;2023-08-06T13:32:45;25.90;99.90
22192;DHT22;11261;52.456;10.850;2023-08-06T13:35:14;26.10;99.90
22192;DHT22;11261;52.456;10.850;2023-08-06T13:37:42;25.00;99.90
22192;DHT22;11261;52.456;10.850;2023-08-06T13:40:11;25.70;99.90
22192;DHT22;11261;52.456;10.850;2023-08-06T13:42:40;25.30;99.90
22192;DHT22;11261;52.456;10.850;2023-08-06T13:45:09;24.80;99.90
22192;DHT22;11261;52.456;10.850;2023-08-06T13:47:38;26.00;99.90
22192;DHT22;11261;52.456;10.850;2023-08-06T13:50:06;26.10;99.50
22192;DHT22;11261;52.456;10.850;2023-08-06T13:52:34;25.40;99.90
22192;DHT22;11261;52.456;10.850;2023-08-06T13:55:04;26.20;99.90
22192;DHT22;11261;52.456;10.850;2023-08-06T13:57:32;25.90;99.90
22192;DHT22;11261;52.456;10.850;2023-08-06T14:00:02;25.30;99.90
22192;DHT22;11261;52.456;10.850;2023-08-06T14:02:30;26.20;99.70
22192;DHT22;11261;52.456;10.850;2023-08-06T14:04:59;25.70;99.90
22192;DHT22;11261;52.456;10.850;2023-08-06T14:07:27;26.00;99.20
22192;DHT22;11261;52.456;10.850;2023-08-06T14:09:56;25.20;98.60
22192;DHT22;11261;52.456;10.850;2023-08-06T14:12:25;25.30;99.90
22192;DHT22;11261;52.456;10.850;2023-08-06T14:14:54;26.00;99.90
22192;DHT22;11261;52.456;10.850;2023-08-06T14:17:28;26.00;99.40
22192;DHT22;11261;52.456;10.850;2023-08-06T14:19:59;26.30;99.90
22192;DHT22;11261;52.456;10.850;2023-08-06T14:22:30;26.20;98.30
22192;DHT22;11261;52.456;10.850;2023-08-06T14:24:58;26.60;99.30
22192;DHT22;11261;52.456;10.850;2023-08-06T14:27:26;26.40;98.30
22192;DHT22;11261;52.456;10.850;2023-08-06T14:29:54;26.70;97.60
22192;DHT22;11261;52.456;10.850;2023-08-06T14:32:23;26.10;99.90
22192;DHT22;11261;52.456;10.850;2023-08-06T14:34:52;26.10;98.90
22192;DHT22;11261;52.456;10.850;2023-08-06T14:37:20;26.00;98.10
22192;DHT22;11261;52.456;10.850;2023-08-06T14:39:49;24.70;97.40
22192;DHT22;11261;52.456;10.850;2023-08-06T14:42:17;25.30;98.30
22192;DHT22;11261;52.456;10.850;2023-08-06T14:44:45;25.60;99.60
22192;DHT22;11261;52.456;10.850;2023-08-06T14:47:14;25.70;99.30
22192;DHT22;11261;52.456;10.850;2023-08-06T14:49:42;25.70;98.60
22192;DHT22;11261;52.456;10.850;2023-08-06T14:52:13;25.50;98.00
22192;DHT22;11261;52.456;10.850;2023-08-06T14:54:41;25.40;97.90
22192;DHT22;11261;52.456;10.850;2023-08-06T14:57:09;25.60;97.50
22192;DHT22;11261;52.456;10.850;2023-08-06T14:59:39;25.50;98.20
22192;DHT22;11261;52.456;10.850;2023-08-06T15:02:08;25.50;98.00
22192;DHT22;11261;52.456;10.850;2023-08-06T15:04:36;25.30;97.80
22192;DHT22;11261;52.456;10.850;2023-08-06T15:07:04;25.50;97.10
22192;DHT22;11261;52.456;10.850;2023-08-06T15:09:34;25.30;97.00
22192;DHT22;11261;52.456;10.850;2023-08-06T15:12:21;25.10;97.60
22192;DHT22;11261;52.456;10.850;2023-08-06T15:14:50;25.00;97.40
22192;DHT22;11261;52.456;10.850;2023-08-06T15:17:18;24.60;97.20
22192;DHT22;11261;52.456;10.850;2023-08-06T15:19:46;24.90;97.40
22192;DHT22;11261;52.456;10.850;2023-08-06T15:22:15;24.80;97.70
22192;DHT22;11261;52.456;10.850;2023-08-06T15:24:44;24.80;97.50
22192;DHT22;11261;52.456;10.850;2023-08-06T15:27:13;24.90;97.20
22192;DHT22;11261;52.456;10.850;2023-08-06T15:32:10;24.70;98.00
22192;DHT22;11261;52.456;10.850;2023-08-06T15:34:38;24.60;98.40
22192;DHT22;11261;52.456;10.850;2023-08-06T15:37:07;24.50;98.80